Terminal Aerodrome Forecast
Issued by NWS

Home | Current Version | Previous Version | Text Only | Print | Product List | Glossary Off
Versions: 1 2 3 4 5 6 7 8 9 10 11 12 13 14 15

000
FTUS43 KBIS 070500
TAFJMS
TAF
KJMS 070535Z 0706/0806 28005KT P6SM SCT080 BKN250
     FM070800 31010KT P6SM VCTS BKN050CB BKN080
     FM071200 33012KT P6SM SCT080
     FM071800 33019G29KT P6SM -SHRA VCTS BKN050CB OVC080
     FM080300 31010KT P6SM SCT080=

USA.gov is the U.S. government's official web portal to all federal, state and local government web resources and services.